Time;durP1;ratioP1;P1;durP2;ratioP2;P2;SDS_P1;SDS_P2;PMS_P1;PMS_P2;Temp;Humidity;BMP_temperature;BMP_pressure;BME280_temperature;BME280_humidity;BME280_pressure;Samples;Min_cycle;Max_cycle;Signal;HPM_P1;HPM_P2
2022/12/12 00:00:38;;;;;;;2.60;1.75;;;0.80;99.90;;;;;;5046767;28;20128;-78
2022/12/12 00:03:05;;;;;;;2.60;1.90;;;0.80;99.90;;;;;;5030003;28;20063;-78
2022/12/12 00:05:31;;;;;;;3.72;2.30;;;0.80;99.90;;;;;;5046953;28;20076;-78
2022/12/12 00:07:58;;;;;;;3.25;2.15;;;0.80;99.90;;;;;;5062169;28;20144;-78
2022/12/12 00:10:25;;;;;;;4.40;2.63;;;0.80;99.90;;;;;;5046634;28;20159;-78
2022/12/12 00:12:52;;;;;;;3.17;2.15;;;0.80;99.90;;;;;;5046035;28;20518;-78
2022/12/12 00:15:20;;;;;;;3.58;2.28;;;0.80;99.90;;;;;;5062514;28;20479;-78
2022/12/12 00:17:47;;;;;;;2.22;1.80;;;0.80;99.90;;;;;;5063433;28;20558;-78
2022/12/12 00:20:14;;;;;;;2.70;1.90;;;0.80;99.90;;;;;;5046377;28;20060;-77
2022/12/12 00:22:40;;;;;;;3.22;2.22;;;0.80;99.90;;;;;;5044972;28;20064;-78
2022/12/12 00:25:07;;;;;;;2.88;2.08;;;0.80;99.90;;;;;;5029814;28;20053;-78
2022/12/12 00:27:34;;;;;;;2.85;1.90;;;0.80;99.90;;;;;;5028690;28;20138;-77
2022/12/12 00:30:01;;;;;;;3.38;2.22;;;0.90;99.90;;;;;;5029813;28;20544;-78
2022/12/12 00:32:29;;;;;;;2.92;2.08;;;0.80;99.90;;;;;;5045428;28;20049;-78
2022/12/12 00:34:56;;;;;;;2.65;1.88;;;0.80;99.90;;;;;;5029030;28;20045;-78
2022/12/12 00:37:22;;;;;;;3.08;1.73;;;0.90;99.90;;;;;;5028923;28;20054;-78
2022/12/12 00:39:49;;;;;;;3.08;2.05;;;0.90;99.90;;;;;;5029878;28;20063;-78
2022/12/12 00:42:16;;;;;;;3.20;2.15;;;0.90;99.90;;;;;;5029430;28;20132;-78
2022/12/12 00:44:43;;;;;;;2.67;1.70;;;0.90;99.90;;;;;;5027556;28;20060;-78
2022/12/12 00:47:10;;;;;;;2.33;1.60;;;0.80;99.90;;;;;;5029512;28;20044;-78
2022/12/12 00:49:37;;;;;;;2.60;1.80;;;0.90;99.90;;;;;;5061464;28;20055;-78
2022/12/12 00:52:04;;;;;;;2.33;1.73;;;0.90;99.90;;;;;;5061423;28;20460;-78
2022/12/12 00:54:31;;;;;;;3.63;2.55;;;0.90;99.90;;;;;;5045663;28;20114;-78
2022/12/12 00:56:57;;;;;;;2.80;2.00;;;0.90;99.90;;;;;;5045989;28;20055;-78
2022/12/12 00:59:24;;;;;;;1.98;1.52;;;0.90;99.90;;;;;;5044344;28;20056;-78
2022/12/12 01:01:51;;;;;;;3.22;2.05;;;0.90;99.90;;;;;;5029312;28;20088;-78
2022/12/12 01:04:18;;;;;;;2.85;1.63;;;0.90;99.90;;;;;;5044657;28;20416;-77
2022/12/12 01:06:45;;;;;;;3.20;2.03;;;0.90;99.90;;;;;;5028300;28;20045;-78
2022/12/12 01:09:12;;;;;;;2.45;1.70;;;0.90;99.90;;;;;;5061655;28;20136;-78
2022/12/12 01:11:38;;;;;;;2.60;1.65;;;0.90;99.90;;;;;;5045196;28;20528;-78
2022/12/12 01:14:05;;;;;;;2.67;1.58;;;0.90;99.90;;;;;;5044153;28;20058;-78
2022/12/12 01:16:32;;;;;;;2.40;1.45;;;0.90;99.90;;;;;;5028627;28;20052;-77
2022/12/12 01:18:59;;;;;;;2.22;1.30;;;0.90;99.90;;;;;;5028275;28;20068;-78
2022/12/12 01:21:26;;;;;;;2.83;1.70;;;0.90;99.90;;;;;;5027468;28;20048;-78
2022/12/12 01:23:52;;;;;;;1.80;1.25;;;0.90;99.90;;;;;;5028029;28;20132;-78
2022/12/12 01:26:22;;;;;;;2.60;1.50;;;0.90;99.90;;;;;;5045461;28;20237;-78
2022/12/12 01:28:49;;;;;;;2.15;1.60;;;0.90;99.90;;;;;;5027495;28;20140;-78
2022/12/12 01:31:15;;;;;;;2.22;1.52;;;0.90;99.90;;;;;;5028684;28;20381;-78
2022/12/12 01:33:44;;;;;;;2.95;1.75;;;0.90;99.90;;;;;;5060528;28;20417;-78
2022/12/12 01:36:15;;;;;;;2.58;1.70;;;0.90;99.90;;;;;;5028408;28;20436;-78
2022/12/12 01:38:46;;;;;;;2.25;1.70;;;0.90;99.90;;;;;;5045127;28;20443;-78
2022/12/12 01:41:12;;;;;;;2.30;1.48;;;0.90;99.90;;;;;;5028384;28;20047;-78
2022/12/12 01:43:39;;;;;;;2.78;1.80;;;0.90;99.90;;;;;;5043710;28;20063;-77
2022/12/12 01:46:32;;;;;;;2.63;2.25;;;0.90;99.90;;;;;;5044971;28;20493;-78
2022/12/12 01:49:14;;;;;;;2.65;1.70;;;0.90;99.90;;;;;;5060984;28;20076;-78
2022/12/12 01:51:41;;;;;;;2.58;2.00;;;0.90;99.90;;;;;;5027900;28;20045;-78
2022/12/12 01:54:16;;;;;;;2.13;1.60;;;0.90;99.90;;;;;;5044140;28;20447;-78
2022/12/12 01:56:43;;;;;;;2.53;1.65;;;0.90;99.90;;;;;;5028587;28;20527;-77
2022/12/12 01:59:11;;;;;;;2.33;1.52;;;0.90;99.90;;;;;;5059893;28;20059;-77
2022/12/12 02:01:38;;;;;;;3.10;1.90;;;0.90;99.90;;;;;;5028063;28;20044;-78
2022/12/12 02:04:06;;;;;;;3.78;2.45;;;0.90;99.90;;;;;;5026989;28;20264;-77
2022/12/12 02:06:33;;;;;;;3.20;2.47;;;0.90;99.90;;;;;;5044410;28;20419;-77
2022/12/12 02:09:02;;;;;;;3.47;2.38;;;0.90;99.90;;;;;;5043607;28;20059;-77
2022/12/12 02:11:31;;;;;;;3.58;2.83;;;0.80;99.90;;;;;;5044464;28;20048;-77
2022/12/12 02:13:57;;;;;;;2.92;1.98;;;0.80;99.90;;;;;;5043022;28;20059;-77
2022/12/12 02:16:32;;;;;;;2.85;1.98;;;0.90;99.90;;;;;;5044062;28;20047;-77
2022/12/12 02:19:28;;;;;;;2.22;1.60;;;0.90;99.90;;;;;;5044117;28;20045;-77
2022/12/12 02:22:19;;;;;;;2.88;2.13;;;0.90;99.90;;;;;;5043402;28;20555;-77
2022/12/12 02:25:24;;;;;;;3.10;2.13;;;0.90;99.90;;;;;;5043457;28;20076;-77
2022/12/12 02:28:17;;;;;;;2.78;2.08;;;0.90;99.90;;;;;;5028630;28;20495;-77
2022/12/12 02:31:11;;;;;;;2.20;2.00;;;0.90;99.90;;;;;;5024067;28;20075;-77
2022/12/12 02:33:43;;;;;;;3.17;1.92;;;0.90;99.90;;;;;;5044194;28;20083;-77
2022/12/12 02:36:17;;;;;;;2.85;1.88;;;0.90;99.90;;;;;;5041831;28;20056;-79
2022/12/12 02:39:00;;;;;;;3.25;1.80;;;0.90;99.90;;;;;;5041093;28;20084;-76
2022/12/12 02:41:31;;;;;;;3.47;2.22;;;0.90;99.90;;;;;;5049231;28;20060;-77
2022/12/12 02:44:00;;;;;;;3.45;2.25;;;0.90;99.90;;;;;;5045074;28;20071;-77
2022/12/12 02:46:32;;;;;;;2.70;1.90;;;0.90;99.90;;;;;;5062523;28;20052;-77
2022/12/12 02:49:08;;;;;;;2.47;1.80;;;0.90;99.90;;;;;;5046186;28;20109;-77
2022/12/12 02:51:35;;;;;;;2.85;1.70;;;0.90;99.90;;;;;;5029290;28;20045;-77
2022/12/12 02:54:03;;;;;;;2.80;1.98;;;0.90;99.90;;;;;;5062504;28;20447;-77
2022/12/12 02:56:51;;;;;;;3.47;2.20;;;0.90;99.90;;;;;;5029401;28;20349;-77
2022/12/12 02:59:24;;;;;;;2.40;1.83;;;0.90;99.90;;;;;;5045317;28;20044;-77
2022/12/12 03:01:54;;;;;;;2.70;1.83;;;0.90;99.90;;;;;;5064101;28;20396;-77
2022/12/12 03:10:12;;;;;;;3.33;2.25;;;0.90;99.90;;;;;;5049609;28;20056;-77
2022/12/12 03:12:59;;;;;;;3.67;2.95;;;0.90;99.90;;;;;;5062425;28;20049;-79
2022/12/12 03:15:58;;;;;;;2.65;1.80;;;0.90;99.90;;;;;;5054176;28;20504;-78
2022/12/12 03:18:42;;;;;;;3.13;1.83;;;0.90;99.90;;;;;;5069648;28;20076;-77
2022/12/12 03:21:38;;;;;;;3.53;2.50;;;0.90;99.90;;;;;;5067917;28;20201;-78
2022/12/12 03:24:09;;;;;;;3.00;2.45;;;0.90;99.90;;;;;;5067928;28;20055;-76
2022/12/12 03:26:43;;;;;;;2.67;1.65;;;0.90;99.90;;;;;;5035592;28;20049;-77
2022/12/12 03:29:31;;;;;;;3.35;2.03;;;0.90;99.90;;;;;;5051384;28;20101;-78
2022/12/12 03:32:02;;;;;;;2.50;1.73;;;1.00;99.90;;;;;;5038025;28;20048;-76
2022/12/12 03:34:33;;;;;;;2.60;1.70;;;1.00;99.90;;;;;;5035100;28;20044;-77
2022/12/12 03:37:05;;;;;;;2.35;1.65;;;1.00;99.90;;;;;;5035415;28;20093;-77
2022/12/12 03:39:48;;;;;;;2.30;1.63;;;1.00;99.90;;;;;;5052598;28;20424;-78
2022/12/12 03:42:20;;;;;;;2.90;1.85;;;0.90;99.90;;;;;;5036542;28;20488;-77
2022/12/12 03:45:01;;;;;;;2.38;1.52;;;0.90;99.90;;;;;;5050933;28;20090;-76
2022/12/12 03:47:48;;;;;;;3.30;2.20;;;1.00;99.90;;;;;;5037033;28;20049;-77
2022/12/12 03:50:19;;;;;;;2.38;1.70;;;1.00;99.90;;;;;;5070425;28;20055;-77
2022/12/12 03:53:31;;;;;;;1.98;1.45;;;1.00;99.90;;;;;;5052572;28;20052;-77
2022/12/12 03:56:24;;;;;;;2.25;1.88;;;1.00;99.90;;;;;;5063436;28;20055;-77
2022/12/12 03:59:00;;;;;;;1.73;1.20;;;1.00;99.90;;;;;;5068672;28;20801;-77
2022/12/12 04:01:34;;;;;;;3.20;1.88;;;1.00;99.90;;;;;;5070471;28;20045;-77
2022/12/12 04:04:06;;;;;;;2.38;1.90;;;1.00;99.90;;;;;;5053052;28;20049;-77
2022/12/12 04:06:37;;;;;;;2.80;1.70;;;1.00;99.90;;;;;;5069570;28;20056;-77
2022/12/12 04:12:57;;;;;;;3.15;1.80;;;1.00;99.90;;;;;;5057712;28;20093;-76
2022/12/12 04:15:47;;;;;;;2.53;1.70;;;1.00;99.90;;;;;;5069776;28;20180;-77
2022/12/12 04:18:45;;;;;;;2.72;2.20;;;1.00;99.90;;;;;;5069127;28;20049;-76
2022/12/12 04:24:14;;;;;;;3.08;2.00;;;1.00;99.90;;;;;;5069623;28;20049;-77
2022/12/12 04:26:45;;;;;;;3.45;2.30;;;1.00;99.90;;;;;;5067465;28;20237;-77
2022/12/12 04:29:18;;;;;;;4.18;2.60;;;0.90;99.90;;;;;;5032643;28;20120;-76
2022/12/12 04:32:13;;;;;;;3.75;2.35;;;0.90;99.90;;;;;;5068125;28;20049;-78
2022/12/12 04:34:46;;;;;;;3.92;2.50;;;0.90;99.90;;;;;;5034196;28;20617;-77
2022/12/12 04:37:15;;;;;;;3.95;2.60;;;0.90;99.90;;;;;;5065759;28;20052;-77
2022/12/12 04:39:42;;;;;;;3.58;1.98;;;0.90;99.90;;;;;;5049855;28;20609;-78
2022/12/12 04:42:10;;;;;;;3.33;2.10;;;0.90;99.90;;;;;;5033648;28;20044;-78
2022/12/12 04:44:38;;;;;;;3.47;2.25;;;1.00;99.90;;;;;;5032079;28;20052;-77
2022/12/12 04:47:04;;;;;;;4.25;2.70;;;1.00;99.90;;;;;;5066503;28;20048;-78
2022/12/12 04:49:31;;;;;;;2.92;2.20;;;1.00;99.90;;;;;;5049113;28;20135;-77
2022/12/12 04:52:04;;;;;;;3.08;1.95;;;1.00;99.90;;;;;;5032696;28;20044;-77
2022/12/12 04:54:39;;;;;;;4.47;2.45;;;1.00;99.90;;;;;;5050100;28;20060;-77
2022/12/12 04:57:07;;;;;;;3.90;2.42;;;1.00;99.90;;;;;;5066204;28;20044;-77
2022/12/12 04:59:34;;;;;;;3.30;2.20;;;1.00;99.90;;;;;;5031649;28;20154;-77
2022/12/12 05:02:10;;;;;;;2.72;1.95;;;1.10;99.90;;;;;;5049901;28;20330;-77
2022/12/12 05:04:46;;;;;;;2.80;2.08;;;1.10;99.90;;;;;;5065119;28;20045;-79
2022/12/12 05:07:21;;;;;;;3.53;2.53;;;1.10;99.90;;;;;;5049960;28;20136;-77
2022/12/12 05:09:49;;;;;;;3.60;2.10;;;1.10;99.90;;;;;;5033527;28;20048;-77
2022/12/12 05:12:16;;;;;;;3.53;2.38;;;1.10;99.90;;;;;;5067170;28;20052;-77
2022/12/12 05:14:44;;;;;;;2.78;1.75;;;1.20;99.90;;;;;;5065976;28;20056;-77
2022/12/12 05:17:12;;;;;;;3.45;2.05;;;1.20;99.90;;;;;;5065899;28;20040;-77
2022/12/12 05:19:39;;;;;;;2.22;1.65;;;1.20;99.90;;;;;;5032324;28;20049;-77
2022/12/12 05:22:06;;;;;;;3.50;2.15;;;1.20;99.90;;;;;;5032112;28;20063;-78
2022/12/12 05:24:32;;;;;;;2.63;1.80;;;1.20;99.90;;;;;;5028431;28;20053;-77
2022/12/12 05:26:59;;;;;;;3.08;2.25;;;1.30;99.90;;;;;;5029262;28;20059;-77
2022/12/12 05:29:27;;;;;;;2.58;1.90;;;1.30;99.90;;;;;;5028044;28;20599;-78
2022/12/12 05:31:53;;;;;;;3.55;2.45;;;1.30;99.90;;;;;;5046777;28;20063;-77
2022/12/12 05:34:20;;;;;;;3.00;1.88;;;1.30;99.90;;;;;;5028399;28;20465;-77
2022/12/12 05:36:47;;;;;;;3.55;2.13;;;1.30;99.90;;;;;;5053198;28;20052;-76
2022/12/12 05:39:14;;;;;;;3.25;2.00;;;1.30;99.90;;;;;;5059581;28;20052;-77
2022/12/12 05:41:40;;;;;;;2.72;1.52;;;1.30;99.90;;;;;;5062535;28;20045;-78
2022/12/12 05:44:07;;;;;;;4.13;2.53;;;1.40;99.90;;;;;;5047342;28;20049;-78
2022/12/12 05:46:35;;;;;;;2.83;1.92;;;1.30;99.90;;;;;;5032482;28;20106;-77
2022/12/12 05:49:02;;;;;;;3.10;2.05;;;1.40;99.90;;;;;;5059646;28;20445;-79
2022/12/12 05:51:29;;;;;;;2.78;1.90;;;1.40;99.90;;;;;;5063108;28;20653;-80
2022/12/12 05:53:56;;;;;;;4.20;2.70;;;1.40;99.90;;;;;;5043161;28;20115;-79
2022/12/12 05:56:23;;;;;;;4.00;2.20;;;1.40;99.90;;;;;;5027966;28;20048;-80
2022/12/12 05:58:50;;;;;;;3.25;2.03;;;1.40;99.90;;;;;;5061701;28;20438;-80
2022/12/12 06:01:17;;;;;;;3.85;2.17;;;1.40;99.90;;;;;;5042286;28;20599;-78
2022/12/12 06:03:44;;;;;;;3.88;2.60;;;1.40;99.90;;;;;;5053096;28;20496;-81
2022/12/12 06:06:11;;;;;;;3.50;2.13;;;1.40;99.90;;;;;;5039789;28;20048;-81
2022/12/12 06:08:38;;;;;;;3.25;2.28;;;1.40;99.90;;;;;;5049642;28;20056;-81
2022/12/12 06:11:06;;;;;;;3.30;2.25;;;1.40;99.90;;;;;;5039376;28;20334;-81
2022/12/12 06:13:33;;;;;;;3.38;2.25;;;1.40;99.90;;;;;;5030187;28;20057;-82
2022/12/12 06:16:06;;;;;;;3.28;2.20;;;1.40;99.90;;;;;;5045234;28;20056;-82
2022/12/12 06:18:34;;;;;;;3.20;2.25;;;1.40;99.90;;;;;;5046362;28;20352;-79
2022/12/12 06:21:05;;;;;;;3.17;2.05;;;1.40;99.90;;;;;;5070805;28;20651;-82
2022/12/12 06:23:37;;;;;;;2.58;1.95;;;1.40;99.90;;;;;;5062138;28;20385;-82
2022/12/12 06:26:04;;;;;;;2.33;1.75;;;1.40;99.90;;;;;;5060136;28;20044;-82
2022/12/12 06:28:31;;;;;;;2.30;1.85;;;1.40;99.90;;;;;;5041969;28;21279;-77
2022/12/12 06:30:58;;;;;;;3.53;2.45;;;1.40;99.90;;;;;;5057627;28;20071;-75
2022/12/12 06:33:26;;;;;;;3.95;2.25;;;1.40;99.90;;;;;;5055696;28;20121;-76
2022/12/12 06:36:00;;;;;;;3.22;2.10;;;1.40;99.90;;;;;;5022394;28;20117;-76
2022/12/12 06:38:26;;;;;;;3.03;2.13;;;1.40;99.90;;;;;;5056625;28;20040;-76
2022/12/12 06:40:53;;;;;;;2.88;2.15;;;1.40;99.90;;;;;;5041038;28;20068;-75
2022/12/12 06:43:20;;;;;;;3.40;1.92;;;1.40;99.90;;;;;;5058307;28;20039;-76
2022/12/12 06:45:47;;;;;;;3.35;2.45;;;1.40;99.90;;;;;;5062446;28;20044;-76
2022/12/12 06:48:13;;;;;;;3.08;2.15;;;1.40;99.90;;;;;;5053753;28;20487;-76
2022/12/12 06:50:41;;;;;;;2.35;1.67;;;1.40;99.90;;;;;;5059460;28;20593;-77
2022/12/12 06:53:08;;;;;;;3.33;2.20;;;1.40;99.90;;;;;;5050254;28;20068;-76
2022/12/12 06:55:41;;;;;;;3.75;2.13;;;1.40;99.90;;;;;;5046810;28;20052;-76
2022/12/12 06:58:08;;;;;;;2.70;2.03;;;1.50;99.90;;;;;;5021120;28;20049;-76
2022/12/12 07:00:35;;;;;;;3.13;2.38;;;1.40;99.90;;;;;;5051376;28;20332;-77
2022/12/12 07:03:02;;;;;;;3.42;2.20;;;1.50;99.90;;;;;;5036770;28;20052;-77
2022/12/12 07:05:29;;;;;;;3.67;2.50;;;1.50;99.90;;;;;;5048607;28;20135;-77
2022/12/12 07:07:57;;;;;;;2.83;2.20;;;1.50;99.90;;;;;;5033929;28;20062;-79
2022/12/12 07:10:23;;;;;;;3.38;1.83;;;1.50;99.90;;;;;;5067656;28;20055;-74
2022/12/12 07:12:50;;;;;;;3.08;2.13;;;1.50;99.90;;;;;;5074572;28;20044;-74
2022/12/12 07:15:23;;;;;;;3.23;2.13;;;1.50;99.90;;;;;;5056558;28;20134;-74
2022/12/12 07:17:53;;;;;;;2.88;1.98;;;1.50;99.90;;;;;;5071136;28;20074;-74
2022/12/12 07:20:20;;;;;;;3.30;2.20;;;1.50;99.90;;;;;;5057893;28;20052;-74
2022/12/12 07:22:47;;;;;;;3.60;2.20;;;1.50;99.90;;;;;;5056030;28;20064;-74
2022/12/12 07:25:13;;;;;;;2.80;2.00;;;1.50;99.90;;;;;;5040478;28;20045;-74
2022/12/12 07:27:41;;;;;;;2.40;1.70;;;1.50;99.90;;;;;;5039743;28;20606;-74
2022/12/12 07:30:08;;;;;;;2.90;1.95;;;1.40;99.90;;;;;;5038382;28;20525;-75
2022/12/12 07:32:35;;;;;;;2.58;1.77;;;1.40;99.90;;;;;;5055650;28;20052;-75
2022/12/12 07:35:01;;;;;;;3.58;2.20;;;1.40;99.90;;;;;;5054780;28;20151;-76
2022/12/12 07:37:29;;;;;;;2.42;1.80;;;1.40;99.90;;;;;;5037453;28;20436;-75
2022/12/12 07:39:55;;;;;;;2.28;1.60;;;1.40;99.90;;;;;;5043267;28;20055;-75
2022/12/12 07:42:22;;;;;;;3.17;2.20;;;1.30;99.90;;;;;;5044710;28;20433;-74
2022/12/12 07:44:49;;;;;;;2.95;2.00;;;1.30;99.90;;;;;;5049129;28;20044;-75
2022/12/12 07:47:17;;;;;;;2.50;1.60;;;1.40;99.90;;;;;;5056559;28;20271;-75
2022/12/12 07:49:44;;;;;;;2.10;1.55;;;1.40;99.90;;;;;;5058457;28;20068;-75
2022/12/12 07:52:11;;;;;;;2.58;1.65;;;1.40;99.90;;;;;;5056640;28;20040;-74
2022/12/12 07:54:37;;;;;;;3.05;1.90;;;1.40;99.90;;;;;;5067791;28;20061;-75
2022/12/12 07:57:04;;;;;;;3.30;2.00;;;1.40;99.90;;;;;;5062585;28;20499;-75
2022/12/12 07:59:31;;;;;;;3.20;2.13;;;1.40;99.90;;;;;;5061385;28;20044;-75
2022/12/12 08:01:58;;;;;;;3.13;1.92;;;1.40;99.90;;;;;;5035058;28;20049;-74
2022/12/12 08:04:24;;;;;;;2.95;2.03;;;1.40;99.90;;;;;;5064550;28;20060;-75
2022/12/12 08:06:52;;;;;;;2.83;1.80;;;1.40;99.90;;;;;;5061634;28;20087;-75
2022/12/12 08:09:28;;;;;;;2.58;1.90;;;1.40;99.90;;;;;;5047987;28;20133;-75
2022/12/12 08:11:57;;;;;;;2.78;2.05;;;1.40;99.90;;;;;;5062157;28;20041;-75
2022/12/12 08:14:24;;;;;;;2.35;1.73;;;1.40;99.90;;;;;;5043856;28;20474;-75
2022/12/12 08:16:51;;;;;;;2.92;1.77;;;1.50;99.90;;;;;;5062436;28;20040;-75
2022/12/12 08:19:18;;;;;;;2.53;1.67;;;1.40;99.90;;;;;;5046998;28;20091;-75
2022/12/12 08:21:45;;;;;;;3.30;1.95;;;1.40;99.90;;;;;;5030345;28;20055;-76
2022/12/12 08:24:13;;;;;;;2.78;1.70;;;1.40;99.90;;;;;;5061904;28;20139;-75
2022/12/12 08:26:42;;;;;;;2.70;1.92;;;1.40;99.90;;;;;;5060632;28;20076;-75
2022/12/12 08:29:10;;;;;;;2.67;1.88;;;1.40;99.90;;;;;;5028730;28;20219;-76
2022/12/12 08:31:38;;;;;;;2.20;1.48;;;1.40;99.90;;;;;;5064138;28;20072;-76
2022/12/12 08:34:04;;;;;;;2.00;1.48;;;1.50;99.90;;;;;;5030568;28;20423;-76
2022/12/12 08:36:33;;;;;;;2.05;1.42;;;1.50;99.90;;;;;;5048268;28;20471;-76
2022/12/12 08:39:06;;;;;;;3.20;1.80;;;1.50;99.90;;;;;;5049545;28;20338;-76
2022/12/12 08:41:34;;;;;;;1.90;1.33;;;1.50;99.90;;;;;;5032872;28;20048;-76
2022/12/12 08:44:01;;;;;;;1.65;1.33;;;1.50;99.90;;;;;;5047574;28;20317;-75
2022/12/12 08:46:28;;;;;;;2.35;1.48;;;1.50;99.90;;;;;;5066056;28;20048;-75
2022/12/12 08:48:55;;;;;;;2.25;1.52;;;1.50;99.90;;;;;;5066200;28;20152;-76
2022/12/12 08:51:22;;;;;;;2.10;1.50;;;1.50;99.90;;;;;;5064611;28;20051;-75
2022/12/12 08:53:50;;;;;;;1.75;1.20;;;1.60;99.90;;;;;;5064833;28;20512;-76
2022/12/12 08:56:17;;;;;;;2.45;1.67;;;1.60;99.90;;;;;;5048831;28;20563;-75
2022/12/12 08:58:43;;;;;;;2.10;1.50;;;1.60;99.90;;;;;;5030956;28;20453;-75
2022/12/12 09:01:11;;;;;;;2.50;1.63;;;1.60;99.90;;;;;;5032038;28;20514;-75
2022/12/12 09:03:38;;;;;;;2.15;1.30;;;1.50;99.90;;;;;;5057912;28;20146;-76
2022/12/12 09:06:06;;;;;;;1.95;1.48;;;1.60;99.90;;;;;;5046688;28;20126;-75
2022/12/12 09:08:33;;;;;;;2.35;1.50;;;1.60;99.90;;;;;;5039375;28;20054;-75
2022/12/12 09:11:00;;;;;;;2.10;1.50;;;1.60;99.90;;;;;;5056435;28;20282;-75
2022/12/12 09:13:26;;;;;;;2.00;1.45;;;1.60;99.90;;;;;;5040011;28;20071;-75
2022/12/12 09:15:53;;;;;;;2.08;1.48;;;1.70;99.90;;;;;;5058829;28;20052;-75
2022/12/12 09:18:20;;;;;;;2.05;1.40;;;1.70;99.90;;;;;;5038794;28;20094;-75
2022/12/12 09:20:51;;;;;;;2.10;1.55;;;1.70;99.90;;;;;;5055010;28;20064;-75
2022/12/12 09:23:18;;;;;;;2.47;1.50;;;1.70;99.90;;;;;;5043137;28;20310;-75
2022/12/12 09:25:45;;;;;;;2.65;1.85;;;1.70;99.90;;;;;;5057108;28;20057;-75
2022/12/12 09:28:12;;;;;;;2.15;1.48;;;1.70;99.90;;;;;;5044192;28;20088;-75
2022/12/12 09:30:39;;;;;;;1.75;1.40;;;1.70;99.90;;;;;;5064993;28;20052;-75
2022/12/12 09:33:06;;;;;;;2.45;1.50;;;1.80;99.90;;;;;;5065243;28;20074;-75
2022/12/12 09:35:32;;;;;;;3.40;2.53;;;1.80;99.90;;;;;;5048304;28;20127;-75
2022/12/12 09:38:00;;;;;;;2.70;1.80;;;1.80;99.90;;;;;;5030620;28;20504;-76
2022/12/12 09:40:54;;;;;;;2.50;1.60;;;1.90;99.90;;;;;;5066339;28;20526;-76
2022/12/12 09:43:54;;;;;;;2.28;1.27;;;1.90;99.90;;;;;;5062783;28;20082;-76
2022/12/12 09:46:33;;;;;;;1.60;1.05;;;2.00;99.90;;;;;;5063210;28;20333;-76
2022/12/12 09:49:28;;;;;;;2.17;1.73;;;2.00;99.90;;;;;;5047870;28;20462;-76
2022/12/12 09:51:55;;;;;;;2.40;1.42;;;2.00;99.90;;;;;;5065511;28;20416;-76
2022/12/12 09:54:24;;;;;;;1.85;1.27;;;2.10;99.90;;;;;;5064095;28;20135;-76
2022/12/12 09:56:56;;;;;;;2.47;1.55;;;2.10;99.90;;;;;;5064399;28;20052;-76
2022/12/12 09:59:28;;;;;;;2.67;1.67;;;2.10;99.90;;;;;;5062995;28;20143;-76
2022/12/12 10:02:14;;;;;;;2.05;1.33;;;2.10;99.90;;;;;;5066297;28;20048;-76
2022/12/12 10:05:12;;;;;;;2.10;1.58;;;2.20;99.90;;;;;;5064799;28;20148;-76
2022/12/12 10:07:45;;;;;;;2.08;1.67;;;2.20;99.90;;;;;;5060251;28;20051;-76
2022/12/12 10:10:19;;;;;;;;;;;2.20;99.90;;;;;;5045826;28;20056;-76
2022/12/12 10:12:46;;;;;;;1.98;1.35;;;2.20;99.90;;;;;;5062802;28;20436;-76
2022/12/12 10:15:29;;;;;;;2.70;1.70;;;2.20;99.90;;;;;;5063821;28;20063;-76
2022/12/12 10:17:58;;;;;;;2.47;1.85;;;2.20;99.90;;;;;;5063748;28;20169;-76
2022/12/12 10:20:29;;;;;;;2.03;1.63;;;2.20;99.90;;;;;;5047429;28;20041;-77
2022/12/12 10:23:31;;;;;;;3.65;1.75;;;2.20;99.90;;;;;;5044854;28;20475;-77
2022/12/12 10:26:00;;;;;;;2.25;1.80;;;2.20;99.90;;;;;;5055125;28;20048;-77
2022/12/12 10:28:29;;;;;;;2.38;1.67;;;2.20;99.90;;;;;;5043933;28;20620;-77
2022/12/12 10:31:17;;;;;;;2.05;1.45;;;2.20;99.90;;;;;;5063504;28;20088;-77
2022/12/12 10:34:09;;;;;;;2.83;1.80;;;2.10;99.90;;;;;;5064260;28;20067;-77
2022/12/12 10:37:20;;;;;;;2.30;1.90;;;2.20;99.90;;;;;;5062975;28;20041;-77
2022/12/12 10:40:06;;;;;;;2.40;1.63;;;2.20;99.90;;;;;;4978504;28;20060;-77
2022/12/12 10:42:38;;;;;;;3.05;2.08;;;2.20;99.90;;;;;;5063457;28;20059;-77
2022/12/12 10:45:26;;;;;;;2.13;1.55;;;2.20;99.90;;;;;;5064418;28;20419;-77
2022/12/12 10:47:53;;;;;;;2.42;1.60;;;2.30;99.90;;;;;;5064288;28;20561;-77
2022/12/12 10:50:37;;;;;;;2.00;1.52;;;2.30;99.90;;;;;;5046765;28;20055;-77
2022/12/12 10:53:05;;;;;;;2.33;1.50;;;2.40;99.90;;;;;;5030118;28;20056;-76
2022/12/12 10:55:41;;;;;;;2.08;1.45;;;2.40;99.90;;;;;;5030423;28;20495;-76
2022/12/12 10:58:08;;;;;;;2.65;1.92;;;2.40;99.90;;;;;;5064235;28;20128;-77
2022/12/12 11:00:39;;;;;;;3.05;2.25;;;2.50;99.90;;;;;;5046693;28;20127;-77
2022/12/12 11:03:12;;;;;;;2.70;2.22;;;2.50;99.90;;;;;;5046278;28;20132;-76
2022/12/12 11:05:39;;;;;;;3.40;2.28;;;2.50;99.90;;;;;;5063090;28;20052;-77
2022/12/12 11:08:20;;;;;;;2.40;1.80;;;2.50;99.90;;;;;;5045552;28;20045;-77
2022/12/12 11:11:09;;;;;;;2.22;1.85;;;2.50;99.90;;;;;;5047272;28;20052;-76
2022/12/12 11:13:52;;;;;;;3.05;2.10;;;2.50;99.90;;;;;;5062798;28;21295;-76
2022/12/12 11:16:27;;;;;;;2.05;1.52;;;2.60;99.90;;;;;;5062883;28;20099;-77
2022/12/12 11:19:03;;;;;;;2.25;1.70;;;2.60;99.90;;;;;;5029941;28;20056;-77
2022/12/12 11:21:34;;;;;;;2.42;1.50;;;2.70;99.90;;;;;;5062296;28;20048;-77
2022/12/12 11:24:07;;;;;;;2.53;1.70;;;2.70;99.90;;;;;;5060268;28;20504;-76
2022/12/12 11:26:39;;;;;;;2.40;1.93;;;2.70;99.90;;;;;;5043361;28;20052;-76
2022/12/12 11:29:25;;;;;;;2.63;1.85;;;2.70;99.90;;;;;;5042993;28;20150;-76
2022/12/12 11:31:52;;;;;;;2.30;1.85;;;2.70;99.90;;;;;;5063214;28;20044;-76
2022/12/12 11:34:19;;;;;;;2.03;1.58;;;2.80;99.90;;;;;;5047200;28;20059;-76
2022/12/12 11:36:47;;;;;;;3.42;2.42;;;2.80;99.90;;;;;;5049681;28;20040;-76
2022/12/12 11:39:27;;;;;;;3.42;2.55;;;2.80;99.90;;;;;;5066675;28;20134;-76
2022/12/12 11:42:00;;;;;;;3.78;2.40;;;2.70;99.90;;;;;;5067242;28;20053;-76
2022/12/12 11:44:32;;;;;;;;;;;2.80;99.90;;;;;;5065740;28;20337;-77
2022/12/12 11:47:17;;;;;;;3.33;2.55;;;2.80;99.90;;;;;;5068040;28;19927;-76
2022/12/12 11:49:46;;;;;;;2.80;2.10;;;2.70;99.90;;;;;;5067043;28;20103;-76
2022/12/12 11:52:31;;;;;;;3.58;2.38;;;2.60;99.90;;;;;;5066134;28;20135;-76
2022/12/12 11:54:59;;;;;;;2.58;1.83;;;2.60;99.90;;;;;;5062436;28;20249;-76
2022/12/12 11:57:41;;;;;;;3.33;2.40;;;2.50;99.90;;;;;;5047036;28;20048;-77
2022/12/12 12:00:08;;;;;;;3.45;2.53;;;2.50;99.90;;;;;;5065265;28;20056;-77
2022/12/12 12:02:53;;;;;;;2.75;2.00;;;2.60;99.90;;;;;;5067225;28;20044;-76
2022/12/12 12:05:41;;;;;;;2.58;1.83;;;2.70;99.90;;;;;;5068253;28;20112;-76
2022/12/12 12:08:49;;;;;;;3.28;2.53;;;2.70;99.90;;;;;;5066957;28;20049;-77
2022/12/12 12:11:47;;;;;;;2.60;1.70;;;2.70;99.90;;;;;;5048016;28;20507;-76
2022/12/12 12:14:54;;;;;;;2.55;1.92;;;2.70;99.90;;;;;;5066560;28;20056;-76
2022/12/12 12:17:21;;;;;;;2.75;2.00;;;2.80;99.90;;;;;;5057831;28;20048;-76
2022/12/12 12:20:10;;;;;;;2.50;2.03;;;2.80;99.90;;;;;;5066996;28;20056;-76
2022/12/12 12:22:43;;;;;;;3.08;2.28;;;2.80;99.90;;;;;;5065443;28;20435;-76
2022/12/12 12:25:31;;;;;;;2.38;1.73;;;2.80;99.90;;;;;;5046586;28;20091;-76
2022/12/12 12:28:06;;;;;;;2.50;1.90;;;2.80;99.90;;;;;;5064101;28;20059;-75
2022/12/12 12:30:35;;;;;;;3.65;2.38;;;2.80;99.90;;;;;;5049644;28;20290;-76
2022/12/12 12:33:08;;;;;;;2.78;2.30;;;2.80;99.90;;;;;;5066731;28;20053;-76
2022/12/12 12:35:46;;;;;;;3.40;2.22;;;2.80;99.90;;;;;;5067160;28;20381;-76
2022/12/12 12:38:34;;;;;;;3.58;2.55;;;2.90;99.90;;;;;;5065394;28;20082;-76
2022/12/12 12:41:15;;;;;;;2.80;2.10;;;2.90;99.90;;;;;;5067392;28;20051;-76
2022/12/12 12:43:49;;;;;;;2.55;1.92;;;2.90;99.90;;;;;;5032488;28;20114;-76
2022/12/12 12:46:57;;;;;;;2.85;1.88;;;3.00;99.90;;;;;;5064424;28;20053;-76
2022/12/12 12:49:51;;;;;;;3.05;1.73;;;3.00;99.90;;;;;;5064888;28;20040;-76
2022/12/12 12:52:29;;;;;;;3.33;2.20;;;3.00;99.90;;;;;;5049806;28;20044;-76
2022/12/12 12:54:56;;;;;;;3.53;2.50;;;3.00;99.90;;;;;;5049167;28;20063;-75
2022/12/12 12:57:34;;;;;;;3.00;2.30;;;3.00;99.90;;;;;;5049068;28;20057;-75
2022/12/12 13:00:08;;;;;;;3.35;2.33;;;3.00;99.90;;;;;;5065221;28;20048;-76
2022/12/12 13:02:59;;;;;;;3.78;2.42;;;3.00;99.90;;;;;;5048596;28;20378;-76
2022/12/12 13:05:41;;;;;;;3.60;2.08;;;3.00;99.90;;;;;;5065782;28;20059;-76
2022/12/12 13:08:25;;;;;;;3.78;2.53;;;3.00;99.90;;;;;;5064095;28;20131;-76
2022/12/12 13:11:29;;;;;;;3.25;2.65;;;3.00;99.90;;;;;;5048529;28;20056;-76
2022/12/12 13:13:58;;;;;;;3.90;2.63;;;2.80;99.90;;;;;;5001221;28;20060;-76
2022/12/12 13:16:25;;;;;;;4.22;2.67;;;2.70;99.90;;;;;;5021626;28;20641;-76
2022/12/12 13:19:08;;;;;;;4.32;2.40;;;2.80;99.90;;;;;;5061333;28;20097;-76
2022/12/12 13:21:56;;;;;;;3.15;2.42;;;2.70;99.90;;;;;;5044426;28;20041;-76
2022/12/12 13:24:56;;;;;;;3.95;2.70;;;2.70;99.90;;;;;;5062361;28;20155;-76
2022/12/12 13:27:31;;;;;;;3.55;2.50;;;2.70;99.90;;;;;;5061700;28;20052;-76
2022/12/12 13:30:03;;;;;;;3.20;2.10;;;2.70;99.90;;;;;;5031640;28;20398;-76
2022/12/12 13:32:55;;;;;;;3.53;2.90;;;2.60;99.90;;;;;;5032679;28;20051;-76
2022/12/12 13:35:28;;;;;;;3.72;2.90;;;2.60;99.90;;;;;;5066405;28;20051;-76
2022/12/12 13:37:55;;;;;;;3.60;2.53;;;2.50;99.90;;;;;;5028876;28;20052;-76
2022/12/12 13:40:33;;;;;;;4.32;2.90;;;2.50;99.90;;;;;;5079281;28;20083;-76